Time;durP1;ratioP1;P1;durP2;ratioP2;P2;SDS_P1;SDS_P2;PMS_P1;PMS_P2;Temp;Humidity;BMP_temperature;BMP_pressure;BME280_temperature;BME280_humidity;BME280_pressure;Samples;Min_cycle;Max_cycle;Signal;HPM_P1;HPM_P2
2023/06/19 00:00:12;;;;;;;8.30;7.30;;;21.00;99.90;;;;;;5088289;27;20039;-80
2023/06/19 00:02:42;;;;;;;8.73;6.90;;;21.00;99.90;;;;;;5069929;28;20475;-80
2023/06/19 00:05:09;;;;;;;11.20;7.30;;;21.00;99.90;;;;;;5071077;27;20165;-80
2023/06/19 00:07:36;;;;;;;9.27;7.18;;;21.00;99.90;;;;;;5084699;27;20047;-80
2023/06/19 00:10:03;;;;;;;7.80;7.00;;;20.90;99.90;;;;;;5090286;27;20112;-80
2023/06/19 00:12:29;;;;;;;10.80;7.93;;;21.00;99.90;;;;;;5077907;27;20040;-80
2023/06/19 00:14:54;;;;;;;8.95;7.68;;;20.90;99.90;;;;;;5067398;27;20034;-80
2023/06/19 00:17:20;;;;;;;8.43;7.40;;;20.90;99.90;;;;;;5087740;28;20500;-80
2023/06/19 00:19:48;;;;;;;9.63;7.38;;;20.90;99.90;;;;;;5084370;28;20462;-80
2023/06/19 00:22:15;;;;;;;8.55;7.15;;;20.90;99.90;;;;;;5077014;27;20405;-80
2023/06/19 00:24:40;;;;;;;8.18;6.95;;;20.90;99.90;;;;;;5060946;27;20048;-80
2023/06/19 00:27:06;;;;;;;8.57;7.78;;;20.80;99.90;;;;;;5080497;28;20319;-80
2023/06/19 00:29:32;;;;;;;9.85;7.78;;;20.80;99.90;;;;;;5072185;27;20042;-80
2023/06/19 00:32:01;;;;;;;10.27;7.35;;;20.80;99.90;;;;;;5072530;27;20115;-80
2023/06/19 00:34:29;;;;;;;8.38;7.40;;;20.80;99.90;;;;;;5078453;27;20088;-80
2023/06/19 00:36:56;;;;;;;8.52;7.53;;;20.80;99.90;;;;;;5087986;27;20051;-80
2023/06/19 00:39:22;;;;;;;9.32;7.47;;;20.80;99.90;;;;;;5073519;27;20028;-80
2023/06/19 00:41:51;;;;;;;8.60;7.57;;;20.80;99.90;;;;;;5097633;27;20091;-80
2023/06/19 00:44:17;;;;;;;9.38;7.78;;;20.80;99.90;;;;;;5084784;27;20043;-80
2023/06/19 00:46:42;;;;;;;10.68;7.70;;;20.70;99.90;;;;;;5073200;27;20054;-80
2023/06/19 00:49:08;;;;;;;10.15;7.55;;;20.70;99.90;;;;;;5069421;28;20050;-80
2023/06/19 00:51:38;;;;;;;9.88;8.13;;;20.70;99.90;;;;;;5074299;27;20036;-79
2023/06/19 00:54:04;;;;;;;8.93;7.30;;;20.70;99.90;;;;;;5068825;27;20093;-80
2023/06/19 00:56:31;;;;;;;8.25;7.45;;;20.70;99.90;;;;;;5090103;27;20035;-80
2023/06/19 00:58:56;;;;;;;8.18;7.38;;;20.70;99.90;;;;;;5078888;27;20066;-80
2023/06/19 01:01:23;;;;;;;8.65;7.38;;;20.70;99.90;;;;;;5073648;28;20880;-80
2023/06/19 01:03:49;;;;;;;8.30;7.32;;;20.70;99.90;;;;;;5091508;27;20043;-80
2023/06/19 01:06:23;;;;;;;10.18;7.22;;;20.70;99.90;;;;;;5088754;27;20119;-80
2023/06/19 01:09:05;;;;;;;9.48;7.05;;;20.70;99.90;;;;;;5081074;27;20164;-80
2023/06/19 01:11:45;;;;;;;8.40;7.47;;;20.70;99.90;;;;;;5073596;28;20597;-80
2023/06/19 01:14:19;;;;;;;10.20;7.20;;;20.70;99.90;;;;;;5089052;27;20051;-80
2023/06/19 01:16:46;;;;;;;8.30;7.00;;;20.70;99.90;;;;;;5062976;27;20040;-80
2023/06/19 01:19:18;;;;;;;8.73;6.82;;;20.70;99.90;;;;;;5076028;27;20040;-80
2023/06/19 01:21:45;;;;;;;8.90;7.25;;;20.70;99.90;;;;;;5059554;28;20456;-80
2023/06/19 01:24:11;;;;;;;7.63;6.82;;;20.70;99.90;;;;;;5073369;27;20370;-80
2023/06/19 01:26:39;;;;;;;10.00;7.22;;;20.60;99.90;;;;;;5079007;28;20044;-80
2023/06/19 01:29:05;;;;;;;11.10;6.15;;;20.60;99.90;;;;;;5067832;27;20050;-80
2023/06/19 01:31:42;;;;;;;11.25;7.10;;;20.60;99.90;;;;;;5093824;27;20050;-79
2023/06/19 01:34:11;;;;;;;8.82;7.20;;;20.60;99.90;;;;;;5072325;27;20035;-80
2023/06/19 01:36:37;;;;;;;10.10;7.35;;;20.60;99.90;;;;;;5073104;27;20238;-80
2023/06/19 01:39:04;;;;;;;10.23;7.53;;;20.60;99.90;;;;;;5064704;27;20053;-80
2023/06/19 01:41:31;;;;;;;8.82;7.28;;;20.60;99.90;;;;;;5069571;27;20043;-80
2023/06/19 01:43:58;;;;;;;10.32;6.95;;;20.60;99.90;;;;;;5068364;27;20046;-79
2023/06/19 01:46:23;;;;;;;7.75;7.00;;;20.60;99.90;;;;;;5076609;27;20035;-80
2023/06/19 01:48:49;;;;;;;8.95;7.45;;;20.60;99.90;;;;;;5072055;27;20390;-80
2023/06/19 01:51:16;;;;;;;8.80;6.65;;;20.60;99.90;;;;;;5068798;28;20035;-80
2023/06/19 01:53:41;;;;;;;8.10;7.07;;;20.60;99.90;;;;;;5068546;27;20118;-80
2023/06/19 01:56:07;;;;;;;11.20;6.93;;;20.50;99.90;;;;;;5081903;28;20478;-79
2023/06/19 01:58:33;;;;;;;7.97;6.97;;;20.60;99.90;;;;;;5066951;27;20035;-80
2023/06/19 02:00:58;;;;;;;7.75;6.95;;;20.50;99.90;;;;;;5071514;27;20123;-79
2023/06/19 02:03:25;;;;;;;10.05;7.20;;;20.60;99.90;;;;;;5089543;28;20347;-80
2023/06/19 02:05:50;;;;;;;9.80;6.60;;;20.60;99.90;;;;;;5069052;27;20086;-80
2023/06/19 02:08:16;;;;;;;8.13;6.90;;;20.50;99.90;;;;;;5071561;27;20466;-80
2023/06/19 02:10:42;;;;;;;8.75;7.50;;;20.50;99.90;;;;;;5085453;27;20032;-80
2023/06/19 02:13:07;;;;;;;7.90;6.72;;;20.50;99.90;;;;;;5063420;27;20042;-80
2023/06/19 02:15:33;;;;;;;9.63;7.07;;;20.50;99.90;;;;;;5085856;27;20035;-80
2023/06/19 02:18:00;;;;;;;11.40;7.07;;;20.50;99.90;;;;;;5069055;27;20043;-80
2023/06/19 02:20:25;;;;;;;10.95;7.15;;;20.50;99.90;;;;;;5074815;28;20035;-79
2023/06/19 02:22:52;;;;;;;9.68;6.97;;;20.50;99.90;;;;;;5089321;27;20051;-80
2023/06/19 02:25:17;;;;;;;9.45;6.93;;;20.50;99.90;;;;;;5070214;27;20385;-80
2023/06/19 02:27:43;;;;;;;10.90;6.93;;;20.40;99.90;;;;;;5082776;28;20063;-79
2023/06/19 02:30:09;;;;;;;10.95;7.25;;;20.40;99.90;;;;;;5087665;27;20053;-80
2023/06/19 02:32:35;;;;;;;8.38;7.03;;;20.50;99.90;;;;;;5089806;27;20139;-79
2023/06/19 02:35:00;;;;;;;9.63;7.03;;;20.40;99.90;;;;;;5066790;28;20051;-80
2023/06/19 02:37:26;;;;;;;8.32;7.07;;;20.50;99.90;;;;;;5071457;27;20285;-80
2023/06/19 02:39:51;;;;;;;9.75;7.00;;;20.40;99.90;;;;;;5064947;28;20500;-80
2023/06/19 02:42:17;;;;;;;9.15;7.03;;;20.40;99.90;;;;;;5059717;28;20046;-79
2023/06/19 02:44:43;;;;;;;9.00;7.07;;;20.40;99.90;;;;;;5067853;27;20054;-80
2023/06/19 02:47:09;;;;;;;8.18;6.88;;;20.40;99.90;;;;;;5070936;27;20046;-79
2023/06/19 02:49:34;;;;;;;9.30;7.40;;;20.40;99.90;;;;;;5059671;28;20039;-79
2023/06/19 02:52:00;;;;;;;9.82;7.35;;;20.30;1.00;;;;;;5065422;27;20039;-80
2023/06/19 02:54:26;;;;;;;11.70;7.25;;;20.40;99.90;;;;;;5083341;28;20130;-80
2023/06/19 02:56:51;;;;;;;8.35;6.85;;;20.40;99.90;;;;;;5083953;28;20133;-80
2023/06/19 02:59:17;;;;;;;8.60;7.22;;;20.30;28.70;;;;;;5068431;27;20249;-80
2023/06/19 03:01:43;;;;;;;10.77;7.30;;;20.30;99.90;;;;;;5058635;28;20127;-79
2023/06/19 03:04:09;;;;;;;8.43;7.15;;;20.30;1.00;;;;;;5078992;27;20043;-80
2023/06/19 03:06:39;;;;;;;8.98;7.22;;;20.30;1.00;;;;;;5070121;28;20365;-80
2023/06/19 03:09:11;;;;;;;8.10;6.93;;;20.30;1.00;;;;;;5068772;27;20079;-80
2023/06/19 03:11:39;;;;;;;8.63;7.72;;;20.30;1.00;;;;;;5077142;28;20051;-79
2023/06/19 03:14:07;;;;;;;8.23;6.80;;;20.40;99.90;;;;;;5065729;28;20140;-80
2023/06/19 03:16:34;;;;;;;8.68;7.18;;;20.40;1.00;;;;;;5074060;27;20046;-80
2023/06/19 03:19:00;;;;;;;8.13;6.85;;;20.40;1.00;;;;;;5094522;27;20031;-80
2023/06/19 03:21:29;;;;;;;8.65;7.03;;;20.40;3.40;;;;;;5073583;28;20316;-79
2023/06/19 03:23:54;;;;;;;8.60;7.15;;;20.40;99.90;;;;;;5091495;28;20220;-79
2023/06/19 03:26:21;;;;;;;9.52;7.13;;;20.50;99.90;;;;;;5081491;28;20167;-80
2023/06/19 03:28:47;;;;;;;9.00;7.00;;;20.50;99.90;;;;;;5061791;28;20047;-80
2023/06/19 03:31:15;;;;;;;9.20;7.18;;;20.50;99.90;;;;;;5063933;28;20533;-79
2023/06/19 03:33:41;;;;;;;9.68;6.78;;;20.60;99.90;;;;;;5075471;28;20537;-80
2023/06/19 03:36:09;;;;;;;9.05;7.30;;;20.50;99.90;;;;;;5087166;28;20174;-79
2023/06/19 03:38:35;;;;;;;9.40;7.60;;;20.50;99.90;;;;;;5065273;28;20313;-80
2023/06/19 03:41:00;;;;;;;12.18;7.65;;;20.60;1.00;;;;;;5087541;28;20608;-80
2023/06/19 03:43:26;;;;;;;8.38;7.43;;;20.60;99.90;;;;;;5059685;28;20426;-80
2023/06/19 03:45:51;;;;;;;9.32;7.10;;;20.60;99.90;;;;;;5068549;28;20087;-80
2023/06/19 03:48:17;;;;;;;7.70;6.55;;;20.70;99.90;;;;;;5075206;28;20035;-80
2023/06/19 03:50:43;;;;;;;8.40;7.18;;;20.80;99.90;;;;;;5077672;28;20134;-80
2023/06/19 03:53:09;;;;;;;8.35;7.15;;;20.80;99.90;;;;;;5068796;28;20034;-80
2023/06/19 03:55:38;;;;;;;12.73;7.45;;;20.80;99.90;;;;;;5081453;28;20047;-79
2023/06/19 03:58:03;;;;;;;8.48;6.95;;;20.80;99.90;;;;;;5064525;28;20127;-79
2023/06/19 04:00:29;;;;;;;8.77;6.40;;;20.90;99.90;;;;;;5085936;28;20119;-80
2023/06/19 04:02:54;;;;;;;13.48;5.93;;;20.90;99.90;;;;;;5073114;28;20410;-79
2023/06/19 04:05:20;;;;;;;9.93;6.63;;;20.90;99.90;;;;;;5089085;28;20039;-79
2023/06/19 04:07:46;;;;;;;7.10;5.95;;;20.90;99.90;;;;;;5076217;28;20494;-80
2023/06/19 04:10:12;;;;;;;8.15;5.95;;;20.90;99.90;;;;;;5067809;28;20077;-79
2023/06/19 04:12:41;;;;;;;8.68;6.45;;;20.90;99.90;;;;;;5076151;28;20449;-80
2023/06/19 04:15:08;;;;;;;7.55;6.13;;;20.80;99.90;;;;;;5075288;28;20446;-80
2023/06/19 04:17:33;;;;;;;9.25;6.97;;;20.80;99.90;;;;;;5086301;28;20428;-79
2023/06/19 04:19:59;;;;;;;8.30;5.97;;;20.80;99.90;;;;;;5067438;28;20046;-80
2023/06/19 04:22:24;;;;;;;6.90;6.20;;;20.80;99.90;;;;;;5070429;28;20039;-80
2023/06/19 04:24:50;;;;;;;8.05;6.05;;;20.80;99.90;;;;;;5065510;28;20054;-79
2023/06/19 04:27:16;;;;;;;7.78;6.05;;;20.80;99.90;;;;;;5066115;28;20031;-80
2023/06/19 04:29:41;;;;;;;6.53;5.85;;;20.80;99.90;;;;;;5077009;27;20437;-80
2023/06/19 04:32:11;;;;;;;8.60;6.30;;;20.80;99.90;;;;;;5088141;27;20324;-79
2023/06/19 04:34:42;;;;;;;7.75;5.75;;;20.80;99.90;;;;;;5084419;28;20040;-79
2023/06/19 04:37:08;;;;;;;11.07;6.00;;;20.80;99.90;;;;;;5072857;27;20042;-79
2023/06/19 04:39:33;;;;;;;10.23;6.45;;;20.80;99.90;;;;;;5082122;28;20044;-79
2023/06/19 04:42:00;;;;;;;8.02;5.60;;;20.80;99.90;;;;;;5072301;27;20463;-79
2023/06/19 04:44:27;;;;;;;9.40;5.80;;;20.90;99.90;;;;;;5068302;27;20438;-79
2023/06/19 04:47:00;;;;;;;8.70;6.13;;;20.90;99.90;;;;;;5074749;28;20114;-80
2023/06/19 04:49:29;;;;;;;7.30;5.68;;;21.00;99.90;;;;;;5086022;27;20050;-80
2023/06/19 04:51:55;;;;;;;8.38;5.93;;;21.00;99.90;;;;;;5092913;27;20206;-80
2023/06/19 04:54:21;;;;;;;7.63;5.65;;;21.00;99.90;;;;;;5070531;27;20046;-79
2023/06/19 04:56:46;;;;;;;6.60;4.97;;;21.10;99.90;;;;;;5087965;28;20028;-79
2023/06/19 04:59:12;;;;;;;8.00;5.90;;;21.10;99.90;;;;;;5063301;28;20541;-79
2023/06/19 05:01:40;;;;;;;5.63;4.90;;;21.00;99.90;;;;;;5075276;27;20056;-79
2023/06/19 05:04:05;;;;;;;5.55;4.93;;;21.10;99.90;;;;;;5073895;27;20175;-79
2023/06/19 05:06:34;;;;;;;8.52;5.95;;;21.10;99.90;;;;;;5081557;27;20399;-79
2023/06/19 05:09:00;;;;;;;8.02;5.32;;;21.00;99.90;;;;;;5087543;27;20095;-79
2023/06/19 05:11:28;;;;;;;5.90;4.13;;;21.00;99.90;;;;;;5082387;28;20418;-80
2023/06/19 05:13:53;;;;;;;7.65;4.45;;;20.90;99.90;;;;;;5076918;27;20047;-80
2023/06/19 05:16:19;;;;;;;7.93;4.63;;;20.90;99.90;;;;;;5113013;27;20510;-80
2023/06/19 05:18:45;;;;;;;4.82;4.28;;;21.10;99.90;;;;;;5068561;27;20120;-80
2023/06/19 05:21:11;;;;;;;5.07;3.88;;;21.10;99.90;;;;;;5085517;27;20468;-79
2023/06/19 05:23:40;;;;;;;8.20;4.45;;;21.20;99.90;;;;;;5082111;28;20043;-79
2023/06/19 05:26:09;;;;;;;4.65;4.05;;;21.20;99.90;;;;;;5066072;28;20564;-80
2023/06/19 05:28:37;;;;;;;7.00;4.60;;;21.20;99.90;;;;;;5068679;27;20026;-80
2023/06/19 05:31:06;;;;;;;5.22;4.35;;;21.10;99.90;;;;;;5067709;28;20398;-80
2023/06/19 05:33:31;;;;;;;5.40;4.30;;;21.30;99.90;;;;;;5092571;27;20038;-80
2023/06/19 05:35:57;;;;;;;6.72;4.15;;;21.40;99.90;;;;;;5085273;27;20035;-80
2023/06/19 05:38:25;;;;;;;7.93;4.47;;;21.70;99.90;;;;;;5071284;28;20078;-80
2023/06/19 05:40:51;;;;;;;5.28;4.07;;;21.60;99.90;;;;;;5088551;27;20563;-79
2023/06/19 05:43:18;;;;;;;5.05;4.25;;;21.60;99.90;;;;;;5073509;28;20040;-79
2023/06/19 05:45:44;;;;;;;7.00;4.82;;;21.70;99.90;;;;;;5071450;27;20077;-79
2023/06/19 05:48:10;;;;;;;7.10;4.20;;;21.70;99.90;;;;;;5089798;27;20477;-80
2023/06/19 05:50:36;;;;;;;6.22;4.30;;;21.70;99.90;;;;;;5083047;28;20142;-79
2023/06/19 05:53:01;;;;;;;5.93;4.20;;;21.60;99.90;;;;;;5070684;28;20046;-79
2023/06/19 05:55:30;;;;;;;5.97;4.63;;;21.70;99.90;;;;;;5088657;27;20051;-79
2023/06/19 05:57:56;;;;;;;6.13;4.63;;;21.60;99.90;;;;;;5066225;28;20399;-80
2023/06/19 06:00:22;;;;;;;5.70;4.70;;;21.80;99.90;;;;;;5084561;27;20039;-79
2023/06/19 06:02:48;;;;;;;4.97;4.47;;;21.70;99.90;;;;;;5072707;27;20130;-80
2023/06/19 06:05:14;;;;;;;6.07;5.18;;;21.70;99.90;;;;;;5093421;27;20549;-79
2023/06/19 06:07:39;;;;;;;7.97;5.10;;;21.70;99.90;;;;;;5077904;28;20466;-80
2023/06/19 06:10:05;;;;;;;8.00;6.05;;;21.50;99.90;;;;;;5081643;28;20126;-79
2023/06/19 06:12:34;;;;;;;6.47;5.65;;;21.60;99.90;;;;;;5067127;28;20562;-79
2023/06/19 06:15:02;;;;;;;8.70;6.13;;;21.60;99.90;;;;;;5073553;28;20040;-79
2023/06/19 06:17:31;;;;;;;11.38;5.47;;;21.60;99.90;;;;;;5074497;27;20390;-79
2023/06/19 06:19:57;;;;;;;8.15;5.75;;;21.70;99.90;;;;;;5090090;27;20100;-79
2023/06/19 06:22:22;;;;;;;7.57;6.25;;;21.70;99.90;;;;;;5070994;27;20035;-80
2023/06/19 06:24:48;;;;;;;8.65;5.88;;;21.90;99.90;;;;;;5072337;27;20100;-79
2023/06/19 06:27:13;;;;;;;7.75;5.80;;;22.00;99.90;;;;;;5066607;27;20122;-79
2023/06/19 06:29:39;;;;;;;6.10;5.05;;;21.90;99.90;;;;;;5070497;27;20027;-79
2023/06/19 06:32:07;;;;;;;5.90;4.95;;;21.80;99.90;;;;;;5083208;28;20406;-80
2023/06/19 06:34:33;;;;;;;5.80;4.72;;;21.90;99.90;;;;;;5074099;28;20043;-80
2023/06/19 06:37:02;;;;;;;5.53;4.80;;;21.70;99.90;;;;;;5090629;27;20142;-80
2023/06/19 06:39:29;;;;;;;8.10;4.93;;;21.80;99.90;;;;;;5070331;28;20083;-80
2023/06/19 06:41:55;;;;;;;6.72;4.63;;;21.70;99.90;;;;;;5067558;27;20039;-80
2023/06/19 06:44:20;;;;;;;10.32;4.45;;;21.60;99.90;;;;;;5085552;27;20088;-80
2023/06/19 06:46:46;;;;;;;4.80;4.20;;;21.60;99.90;;;;;;5082555;27;20032;-79
2023/06/19 06:49:12;;;;;;;6.72;3.97;;;21.50;99.90;;;;;;5072733;27;20035;-79
2023/06/19 06:51:38;;;;;;;4.20;3.67;;;21.40;99.90;;;;;;5066499;27;20055;-80
2023/06/19 06:54:06;;;;;;;5.00;3.83;;;21.20;99.90;;;;;;5070481;28;20142;-79
2023/06/19 06:56:32;;;;;;;7.85;4.60;;;21.20;99.90;;;;;;5078385;28;20398;-80
2023/06/19 06:58:57;;;;;;;5.20;4.63;;;21.10;99.90;;;;;;5066012;28;20065;-79
2023/06/19 07:01:23;;;;;;;6.25;4.72;;;21.20;99.90;;;;;;5078440;28;20283;-80
2023/06/19 07:03:48;;;;;;;7.03;6.22;;;21.00;99.90;;;;;;5067593;28;20568;-80
2023/06/19 07:06:14;;;;;;;10.60;7.25;;;20.90;99.90;;;;;;5063578;27;20493;-79
2023/06/19 07:08:40;;;;;;;7.43;6.10;;;20.80;99.90;;;;;;5085879;27;20065;-80
2023/06/19 07:11:07;;;;;;;9.35;8.38;;;20.90;99.90;;;;;;5065876;28;20593;-79
2023/06/19 07:13:32;;;;;;;11.20;10.00;;;20.80;99.90;;;;;;5068323;27;20027;-79
2023/06/19 07:15:59;;;;;;;10.65;9.20;;;20.70;99.90;;;;;;5086274;28;20086;-80
2023/06/19 07:18:24;;;;;;;14.27;10.55;;;20.80;99.90;;;;;;5114129;27;20036;-79
2023/06/19 07:20:50;;;;;;;13.95;10.38;;;20.80;99.90;;;;;;5089925;28;20088;-80
2023/06/19 07:23:16;;;;;;;17.88;11.88;;;20.70;99.90;;;;;;5067185;27;20100;-80
2023/06/19 07:25:42;;;;;;;15.07;12.93;;;20.60;99.90;;;;;;5067888;28;20045;-79
2023/06/19 07:28:08;;;;;;;15.05;12.25;;;20.60;99.90;;;;;;5065661;28;20509;-79
2023/06/19 07:30:34;;;;;;;15.02;12.50;;;20.60;99.90;;;;;;5072901;28;20039;-79
2023/06/19 07:33:00;;;;;;;16.58;12.85;;;20.60;99.90;;;;;;5075176;28;20180;-80
2023/06/19 07:35:25;;;;;;;17.48;11.32;;;20.70;99.90;;;;;;5089616;28;20035;-80
2023/06/19 07:37:51;;;;;;;13.65;11.48;;;20.80;99.90;;;;;;5065126;28;20127;-79
2023/06/19 07:40:16;;;;;;;18.05;12.45;;;20.80;99.90;;;;;;5073446;28;20511;-79
2023/06/19 07:42:43;;;;;;;17.65;13.23;;;20.70;99.90;;;;;;5066865;28;20512;-79
2023/06/19 07:45:09;;;;;;;16.33;12.15;;;20.60;99.90;;;;;;5086646;28;20076;-79
2023/06/19 07:47:37;;;;;;;13.63;10.98;;;20.70;99.90;;;;;;5083345;28;20134;-79
2023/06/19 07:50:06;;;;;;;15.13;10.95;;;20.70;99.90;;;;;;5081546;28;20526;-80
2023/06/19 07:52:33;;;;;;;14.95;11.98;;;20.80;99.90;;;;;;5080531;28;20133;-80
2023/06/19 07:54:58;;;;;;;15.75;11.68;;;20.70;99.90;;;;;;5071451;28;20048;-79
2023/06/19 07:57:25;;;;;;;16.10;11.45;;;20.60;99.90;;;;;;5067778;28;20040;-79
2023/06/19 07:59:52;;;;;;;13.68;10.85;;;20.60;99.90;;;;;;5072523;28;20160;-79
2023/06/19 08:02:18;;;;;;;12.73;10.20;;;20.50;99.90;;;;;;5071679;28;20509;-79
2023/06/19 08:04:44;;;;;;;12.13;10.48;;;20.60;99.90;;;;;;5090617;27;20035;-80
2023/06/19 08:07:10;;;;;;;14.18;10.18;;;20.50;99.90;;;;;;5070664;27;20062;-79
2023/06/19 08:09:36;;;;;;;11.50;9.45;;;20.60;99.90;;;;;;5070002;27;20493;-80
2023/06/19 08:12:02;;;;;;;11.23;8.88;;;20.60;99.90;;;;;;5068653;27;20149;-79
2023/06/19 08:14:28;;;;;;;10.43;8.18;;;20.60;99.90;;;;;;5082262;27;20164;-80
2023/06/19 08:16:55;;;;;;;11.40;8.30;;;20.60;99.90;;;;;;5090689;27;20549;-79
2023/06/19 08:19:20;;;;;;;8.10;7.20;;;20.60;99.90;;;;;;5073598;27;20379;-80
2023/06/19 08:21:46;;;;;;;9.20;7.25;;;20.50;99.90;;;;;;5068021;27;20050;-79
2023/06/19 08:24:12;;;;;;;8.25;6.72;;;20.50;99.90;;;;;;5072574;27;20036;-79
2023/06/19 08:26:37;;;;;;;9.10;6.60;;;20.50;99.90;;;;;;5085486;28;20032;-79
2023/06/19 08:29:03;;;;;;;7.80;6.03;;;20.50;99.90;;;;;;5058162;28;20095;-79
2023/06/19 08:31:29;;;;;;;8.07;5.57;;;20.50;99.90;;;;;;5066432;28;20039;-79
2023/06/19 08:33:55;;;;;;;7.43;6.07;;;20.50;99.90;;;;;;5089239;27;20039;-80
2023/06/19 08:36:21;;;;;;;8.50;5.85;;;20.50;99.90;;;;;;5054120;27;20061;-79
2023/06/19 08:38:49;;;;;;;6.80;5.97;;;20.50;99.90;;;;;;5085234;27;20047;-79
2023/06/19 08:41:18;;;;;;;7.05;5.43;;;20.50;99.90;;;;;;5068078;28;20052;-79
2023/06/19 08:43:45;;;;;;;8.25;5.45;;;20.50;99.90;;;;;;5065361;27;20513;-79
2023/06/19 08:46:13;;;;;;;7.63;5.30;;;20.50;99.90;;;;;;5069383;27;20043;-79
2023/06/19 08:48:41;;;;;;;8.60;4.88;;;20.50;99.90;;;;;;5085139;27;20067;-80
2023/06/19 08:51:09;;;;;;;6.38;5.10;;;20.40;99.90;;;;;;5062059;28;20418;-79
2023/06/19 08:53:36;;;;;;;6.40;4.95;;;20.50;99.90;;;;;;5065104;27;20049;-80
2023/06/19 08:56:03;;;;;;;7.90;5.35;;;20.50;99.90;;;;;;5067805;27;20643;-79
2023/06/19 08:58:29;;;;;;;5.88;4.57;;;20.50;99.90;;;;;;5082268;27;20888;-79
2023/06/19 09:00:57;;;;;;;6.10;4.90;;;20.60;99.90;;;;;;5084661;28;20161;-79
2023/06/19 09:03:23;;;;;;;6.05;4.88;;;20.60;99.90;;;;;;5085678;27;20081;-79
2023/06/19 09:05:52;;;;;;;6.88;5.53;;;20.60;99.90;;;;;;5070121;27;20502;-79
2023/06/19 09:08:19;;;;;;;6.75;4.63;;;20.60;99.90;;;;;;5082741;28;20066;-80
2023/06/19 09:11:18;;;;;;;5.68;5.07;;;20.60;99.90;;;;;;5072834;27;20077;-80
2023/06/19 09:13:43;;;;;;;7.25;4.40;;;20.70;99.90;;;;;;5041155;28;20043;-79
2023/06/19 09:16:09;;;;;;;6.20;4.70;;;20.70;99.90;;;;;;5071998;27;20443;-79
2023/06/19 09:18:46;;;;;;;9.13;5.43;;;20.90;99.90;;;;;;5085298;27;20036;-79
2023/06/19 09:21:18;;;;;;;8.02;5.60;;;21.10;99.90;;;;;;5064012;28;20040;-79
2023/06/19 09:23:44;;;;;;;6.15;4.75;;;21.70;99.90;;;;;;5096858;28;20120;-80
2023/06/19 09:26:10;;;;;;;9.30;5.43;;;22.20;99.90;;;;;;5065847;28;20035;-79
2023/06/19 09:28:41;;;;;;;7.70;5.60;;;22.30;99.90;;;;;;5083666;27;20039;-79
2023/06/19 09:31:07;;;;;;;7.35;6.20;;;22.00;99.90;;;;;;5065591;27;20032;-79
2023/06/19 09:33:34;;;;;;;9.02;5.95;;;21.60;99.90;;;;;;5095971;27;20111;-79
2023/06/19 09:36:01;;;;;;;7.32;5.55;;;21.70;99.90;;;;;;5072231;27;20100;-79
2023/06/19 09:38:30;;;;;;;7.50;4.75;;;22.30;99.90;;;;;;5087944;28;20035;-79
2023/06/19 09:40:59;;;;;;;8.38;4.47;;;22.40;99.90;;;;;;5082051;27;20301;-79
2023/06/19 09:43:33;;;;;;;6.50;3.90;;;22.30;99.90;;;;;;5093705;27;20122;-79
2023/06/19 09:46:00;;;;;;;7.57;4.57;;;21.90;99.90;;;;;;5085068;27;20042;-79
2023/06/19 09:48:30;;;;;;;7.95;4.85;;;22.00;99.90;;;;;;5062915;27;20649;-79
2023/06/19 09:51:11;;;;;;;6.75;4.70;;;22.00;99.90;;;;;;5061797;27;20047;-79
2023/06/19 09:53:37;;;;;;;8.73;5.43;;;21.90;99.90;;;;;;5088719;27;20086;-79
2023/06/19 09:56:03;;;;;;;7.07;5.25;;;22.00;99.90;;;;;;5071046;28;20399;-79
2023/06/19 09:58:31;;;;;;;7.63;6.00;;;22.00;99.90;;;;;;5086772;28;20044;-79
2023/06/19 10:00:59;;;;;;;12.05;6.30;;;22.20;99.90;;;;;;5087969;27;20035;-79
2023/06/19 10:03:36;;;;;;;11.18;7.63;;;21.80;99.90;;;;;;5066426;28;20108;-79
2023/06/19 10:06:03;;;;;;;8.38;7.10;;;22.10;99.90;;;;;;5069775;27;20088;-79
2023/06/19 10:08:42;;;;;;;8.93;6.45;;;21.90;99.90;;;;;;5086669;27;20035;-79
2023/06/19 10:11:09;;;;;;;8.00;6.80;;;22.10;99.90;;;;;;5086169;28;20036;-79
2023/06/19 10:13:38;;;;;;;11.18;6.88;;;21.90;99.90;;;;;;5064382;27;20039;-79
2023/06/19 10:16:04;;;;;;;12.02;6.65;;;21.90;99.90;;;;;;5083088;28;20164;-79
2023/06/19 10:18:32;;;;;;;9.07;7.38;;;21.90;99.90;;;;;;5067299;28;20050;-79
2023/06/19 10:20:58;;;;;;;9.70;7.40;;;21.90;99.90;;;;;;5065524;27;20450;-79
2023/06/19 10:23:28;;;;;;;10.35;6.97;;;22.00;99.90;;;;;;5062036;28;20472;-79
2023/06/19 10:25:54;;;;;;;10.25;7.80;;;21.90;99.90;;;;;;5085344;27;20051;-79
2023/06/19 10:28:27;;;;;;;9.73;8.02;;;21.90;99.90;;;;;;5080157;28;20483;-79
2023/06/19 10:31:07;;;;;;;10.40;7.60;;;22.20;99.90;;;;;;5070406;27;20046;-79
2023/06/19 10:33:36;;;;;;;8.35;7.45;;;22.00;99.90;;;;;;5062718;27;20566;-79
2023/06/19 10:36:17;;;;;;;10.70;8.27;;;22.10;99.90;;;;;;5073557;27;20047;-79
2023/06/19 10:38:49;;;;;;;12.25;8.27;;;22.00;99.90;;;;;;5081631;27;20039;-79
2023/06/19 10:41:18;;;;;;;9.93;8.30;;;22.30;99.90;;;;;;5085113;27;20047;-79
2023/06/19 10:44:05;;;;;;;10.35;8.52;;;22.50;99.90;;;;;;5067895;27;20027;-79
2023/06/19 10:46:32;;;;;;;10.57;7.80;;;22.60;99.90;;;;;;5081395;28;20044;-79
2023/06/19 10:49:01;;;;;;;11.13;9.23;;;23.10;99.90;;;;;;5063973;28;20371;-79
2023/06/19 10:51:28;;;;;;;13.02;9.00;;;22.90;99.90;;;;;;5084453;27;20110;-79
2023/06/19 10:53:57;;;;;;;10.18;8.20;;;22.90;99.90;;;;;;5089750;27;20466;-79
2023/06/19 10:56:24;;;;;;;10.90;8.90;;;23.40;99.90;;;;;;5098031;27;20082;-79
2023/06/19 10:59:11;;;;;;;11.38;8.68;;;23.10;99.90;;;;;;5063922;28;20127;-79
2023/06/19 11:01:46;;;;;;;9.75;8.57;;;23.00;99.90;;;;;;5073766;27;20028;-79
2023/06/19 11:04:12;;;;;;;;;;;22.50;99.90;;;;;;5096183;27;20288;-79
2023/06/19 11:06:39;;;;;;;11.88;8.35;;;22.60;99.90;;;;;;5064246;28;20360;-79
2023/06/19 11:09:06;;;;;;;12.82;9.38;;;22.60;99.90;;;;;;5067891;27;20131;-79
2023/06/19 11:11:42;;;;;;;11.27;8.68;;;23.00;99.90;;;;;;5082814;28;20028;-79
2023/06/19 11:14:09;;;;;;;11.98;9.68;;;22.70;99.90;;;;;;5064576;28;20396;-79
2023/06/19 11:16:39;;;;;;;10.88;9.38;;;23.00;99.90;;;;;;5071965;28;20034;-79
2023/06/19 11:19:07;;;;;;;10.80;8.88;;;22.90;99.90;;;;;;5074178;28;20051;-79
2023/06/19 11:21:38;;;;;;;10.55;9.45;;;23.40;99.90;;;;;;5071889;28;20471;-79
2023/06/19 11:24:06;;;;;;;10.32;8.88;;;23.20;99.90;;;;;;5073143;28;20375;-79
2023/06/19 11:26:49;;;;;;;10.57;8.98;;;23.90;99.90;;;;;;5083073;28;20307;-79
2023/06/19 11:29:20;;;;;;;10.88;9.38;;;24.80;99.90;;;;;;5080812;28;20050;-80
2023/06/19 11:31:47;;;;;;;12.10;8.43;;;25.10;99.90;;;;;;5081868;28;20043;-80
2023/06/19 11:34:13;;;;;;;11.77;9.30;;;24.50;99.90;;;;;;5076074;28;20137;-80
2023/06/19 11:36:40;;;;;;;11.55;9.25;;;23.70;99.90;;;;;;5065627;28;20435;-79
2023/06/19 11:39:14;;;;;;;10.50;9.20;;;24.10;99.90;;;;;;5077989;27;20180;-79
2023/06/19 11:41:41;;;;;;;13.65;10.55;;;23.40;99.90;;;;;;5066716;28;20043;-79
2023/06/19 11:44:11;;;;;;;12.63;9.68;;;24.00;99.90;;;;;;5093542;27;20040;-79
2023/06/19 11:46:37;;;;;;;11.52;9.15;;;24.50;99.90;;;;;;5092552;27;20443;-79
2023/06/19 11:49:13;;;;;;;13.77;9.73;;;24.70;99.90;;;;;;5094980;27;20040;-79
2023/06/19 11:51:40;;;;;;;12.95;9.95;;;24.40;99.90;;;;;;5066832;28;20047;-79
2023/06/19 11:54:08;;;;;;;10.95;9.38;;;24.30;1.00;;;;;;5075080;27;20072;-79
2023/06/19 11:56:35;;;;;;;11.63;9.60;;;24.70;99.90;;;;;;5082846;27;20036;-79
2023/06/19 11:59:03;;;;;;;12.68;8.50;;;24.70;1.00;;;;;;5088132;27;20454;-80
2023/06/19 12:01:30;;;;;;;11.38;8.57;;;24.60;99.90;;;;;;5067728;28;20036;-79
2023/06/19 12:03:55;;;;;;;10.77;8.80;;;24.90;99.90;;;;;;5087853;27;20497;-79
2023/06/19 12:06:21;;;;;;;14.88;10.23;;;25.50;99.90;;;;;;5088836;28;20040;-79
2023/06/19 12:08:47;;;;;;;13.18;10.27;;;24.40;99.90;;;;;;5090326;27;20039;-79
2023/06/19 12:11:13;;;;;;;14.70;10.65;;;24.20;1.00;;;;;;5077055;28;20127;-80
2023/06/19 12:13:40;;;;;;;13.25;10.20;;;23.90;1.00;;;;;;5084236;28;20086;-79
2023/06/19 12:16:07;;;;;;;13.85;11.38;;;24.70;99.90;;;;;;5069495;28;20483;-79
2023/06/19 12:18:33;;;;;;;18.15;13.52;;;24.50;1.00;;;;;;5087872;27;20486;-80
2023/06/19 12:20:58;;;;;;;15.65;11.82;;;24.10;1.00;;;;;;5073010;28;20028;-79
2023/06/19 12:23:24;;;;;;;17.98;14.73;;;24.40;1.00;;;;;;5086239;28;20301;-79
2023/06/19 12:25:49;;;;;;;18.45;14.15;;;23.80;99.90;;;;;;5063588;28;20617;-79
2023/06/19 12:28:18;;;;;;;18.10;12.00;;;23.70;99.90;;;;;;5064192;28;20044;-79
2023/06/19 12:30:44;;;;;;;16.83;12.23;;;23.60;99.90;;;;;;5065999;28;20394;-79
2023/06/19 12:33:10;;;;;;;17.55;12.45;;;24.00;99.90;;;;;;5090560;27;20225;-79
2023/06/19 12:35:40;;;;;;;13.30;11.32;;;24.00;99.90;;;;;;5074499;27;20057;-79
2023/06/19 12:38:06;;;;;;;12.77;11.00;;;24.50;99.90;;;;;;5065340;27;20113;-79
2023/06/19 12:40:32;;;;;;;14.30;11.95;;;25.10;99.90;;;;;;5073237;27;20526;-79
2023/06/19 12:42:58;;;;;;;17.13;10.85;;;24.50;99.90;;;;;;5062332;28;20343;-80